Time;durP1;ratioP1;P1;durP2;ratioP2;P2;SDS_P1;SDS_P2;PMS_P1;PMS_P2;Temp;Humidity;BMP_temperature;BMP_pressure;BME280_temperature;BME280_humidity;BME280_pressure;Samples;Min_cycle;Max_cycle;Signal;HPM_P1;HPM_P2
2022/10/18 00:00:17;;;;;;;;;;;;;;;;;;4967605;28;20020;-56
2022/10/18 00:02:42;;;;;;;;;;;;;;;;;;4964934;28;19930;-56
2022/10/18 00:05:08;;;;;;;;;;;;;;;;;;4954419;28;20380;-56
2022/10/18 00:07:33;;;;;;;;;;;;;;;;;;4956413;28;19922;-54
2022/10/18 00:09:58;;;;;;;;;;;;;;;;;;4963784;28;20397;-55
2022/10/18 00:12:24;;;;;;;;;;;;;;;;;;4955849;28;19923;-56
2022/10/18 00:14:49;;;;;;;;;;;;;;;;;;4961856;28;19923;-56
2022/10/18 00:17:15;;;;;;;;;;;;;;;;;;4962978;28;20358;-56
2022/10/18 00:19:40;;;;;;;;;;;;;;;;;;4957304;28;19954;-56
2022/10/18 00:22:05;;;;;;;;;;;;;;;;;;4966171;28;20009;-56
2022/10/18 00:24:31;;;;;;;;;;;;;;;;;;4954610;28;19915;-55
2022/10/18 00:26:56;;;;;;;;;;;;;;;;;;4959578;28;19964;-56
2022/10/18 00:29:21;;;;;;;;;;;;;;;;;;4959460;28;20367;-55
2022/10/18 00:31:46;;;;;;;;;;;;;;;;;;4962486;28;19938;-56
2022/10/18 00:34:13;;;;;;;;;;;;;;;;;;4968986;28;19967;-56
2022/10/18 00:36:39;;;;;;;;;;;;;;;;;;4960567;28;19949;-55
2022/10/18 00:39:05;;;;;;;;;;;;;;;;;;4965440;28;20392;-56
2022/10/18 00:41:32;;;;;;;;;;;;;;;;;;4965775;28;19918;-56
2022/10/18 00:44:09;;;;;;;;;;;;;;;;;;4957869;28;20474;-56
2022/10/18 00:46:36;;;;;;;;;;;;;;;;;;4961474;28;20024;-56
2022/10/18 00:49:03;;;;;;;;;;;;;;;;;;4961334;28;19952;-56
2022/10/18 00:51:35;;;;;;;;;;;;;;;;;;4964962;28;19977;-56
2022/10/18 00:54:00;;;;;;;;;;;;;;;;;;4962017;28;19953;-55
2022/10/18 00:56:26;;;;;;;;;;;;;;;;;;4964128;28;19964;-55
2022/10/18 00:58:51;;;;;;;;;;;;;;;;;;4965974;28;19942;-56
2022/10/18 01:01:16;;;;;;;;;;;;;;;;;;4956775;28;19933;-55
2022/10/18 01:03:42;;;;;;;;;;;;;;;;;;4957373;28;19954;-56
2022/10/18 01:06:08;;;;;;;;;;;;;;;;;;4962882;28;19926;-56
2022/10/18 01:08:43;;;;;;;;;;;;;;;;;;4955956;28;19918;-55
2022/10/18 01:11:08;;;;;;;;;;;;;;;;;;4959368;28;19922;-56
2022/10/18 01:13:52;;;;;;;;;;;;;;;;;;4960900;28;19925;-55
2022/10/18 01:16:20;;;;;;;;;;;;;;;;;;4964819;28;19918;-55
2022/10/18 01:18:56;;;;;;;;;;;;;;;;;;4962433;28;19929;-56
2022/10/18 01:21:30;;;;;;;;;;;;;;;;;;4955149;28;20373;-55
2022/10/18 01:24:21;;;;;;;;;;;;;;;;;;4959313;28;19925;-56
2022/10/18 01:26:47;;;;;;;;;;;;;;;;;;4958094;28;19974;-56
2022/10/18 01:29:12;;;;;;;;;;;;;;;;;;4963444;28;20372;-56
2022/10/18 01:31:49;;;;;;;;;;;;;;;;;;4956892;28;20817;-55
2022/10/18 01:34:16;;;;;;;;;;;;;;;;;;4960670;28;19918;-55
2022/10/18 01:36:42;;;;;;;;;;;;;;;;;;4960824;28;20372;-56
2022/10/18 01:39:11;;;;;;;;;;;;;;;;;;4964959;28;19971;-55
2022/10/18 01:41:37;;;;;;;;;;;;;;;;;;4961628;28;20269;-54
2022/10/18 01:44:05;;;;;;;;;;;;;;;;;;4952668;28;20324;-55
2022/10/18 01:46:32;;;;;;;;;;;;;;;;;;4955717;28;19926;-55
2022/10/18 01:48:57;;;;;;;;;;;;;;;;;;4957393;28;19918;-55
2022/10/18 01:51:24;;;;;;;;;;;;;;;;;;4954397;28;20044;-55
2022/10/18 01:53:49;;;;;;;;;;;;;;;;;;4960418;28;20376;-55
2022/10/18 01:56:33;;;;;;;;;;;;;;;;;;4962405;28;19918;-55
2022/10/18 01:59:01;;;;;;;;;;;;;;;;;;4957227;28;19918;-54
2022/10/18 02:01:49;;;;;;;;;;;;;;;;;;4964919;28;19979;-55
2022/10/18 02:04:32;;;;;;;;;;;;;;;;;;4960432;28;19922;-55
2022/10/18 02:07:23;;;;;;;;;;;;;;;;;;4961260;28;19963;-55
2022/10/18 02:10:07;;;;;;;;;;;;;;;;;;4965898;28;19961;-55
2022/10/18 02:12:33;;;;;;;;;;;;;;;;;;4957579;28;19918;-54
2022/10/18 02:14:59;;;;;;;;;;;;;;;;;;4956116;28;19963;-55
2022/10/18 02:17:27;;;;;;;;;;;;;;;;;;4954856;28;19923;-55
2022/10/18 02:19:54;;;;;;;;;;;;;;;;;;4955820;28;20415;-56
2022/10/18 02:22:20;;;;;;;;;;;;;;;;;;4957718;28;20005;-56
2022/10/18 02:24:48;;;;;;;;;;;;;;;;;;4960435;28;19968;-56
2022/10/18 02:27:13;;;;;;;;;;;;;;;;;;4961796;28;19973;-56
2022/10/18 02:29:39;;;;;;;;;;;;;;;;;;4964664;28;19953;-55
2022/10/18 02:32:08;;;;;;;;;;;;;;;;;;4953669;28;19995;-55
2022/10/18 02:34:36;;;;;;;;;;;;;;;;;;4962489;28;20526;-55
2022/10/18 02:37:02;;;;;;;;;;;;;;;;;;4961320;28;20276;-55
2022/10/18 02:39:30;;;;;;;;;;;;;;;;;;4965275;28;19925;-54
2022/10/18 02:41:56;;;;;;;;;;;;;;;;;;4961838;28;19953;-55
2022/10/18 02:44:21;;;;;;;;;;;;;;;;;;4967202;28;20408;-56
2022/10/18 02:46:47;;;;;;;;;;;;;;;;;;4958376;28;19919;-56
2022/10/18 02:49:12;;;;;;;;;;;;;;;;;;4958034;28;20349;-56
2022/10/18 02:51:37;;;;;;;;;;;;;;;;;;4962506;28;20438;-56
2022/10/18 02:54:03;;;;;;;;;;;;;;;;;;4962564;28;19918;-55
2022/10/18 02:56:28;;;;;;;;;;;;;;;;;;4963118;28;19918;-56
2022/10/18 02:58:53;;;;;;;;;;;;;;;;;;4966860;28;19926;-56
2022/10/18 03:01:18;;;;;;;;;;;;;;;;;;4965481;28;19918;-55
2022/10/18 03:03:44;;;;;;;;;;;;;;;;;;4963582;28;20384;-56
2022/10/18 03:06:09;;;;;;;;;;;;;;;;;;4961291;28;19953;-56
2022/10/18 03:08:35;;;;;;;;;;;;;;;;;;4962131;28;19914;-56
2022/10/18 03:11:00;;;;;;;;;;;;;;;;;;4967639;28;20024;-56
2022/10/18 03:13:25;;;;;;;;;;;;;;;;;;4958767;28;20013;-55
2022/10/18 03:15:50;;;;;;;;;;;;;;;;;;4961935;28;19974;-55
2022/10/18 03:18:16;;;;;;;;;;;;;;;;;;4964960;28;19975;-55
2022/10/18 03:20:41;;;;;;;;;;;;;;;;;;4965046;28;19919;-56
2022/10/18 03:23:06;;;;;;;;;;;;;;;;;;4955342;28;19914;-56
2022/10/18 03:25:32;;;;;;;;;;;;;;;;;;4955180;28;20335;-55
2022/10/18 03:27:58;;;;;;;;;;;;;;;;;;4960814;28;20001;-56
2022/10/18 03:30:23;;;;;;;;;;;;;;;;;;4960462;28;19967;-56
2022/10/18 03:32:48;;;;;;;;;;;;;;;;;;4967264;28;20194;-57
2022/10/18 03:35:13;;;;;;;;;;;;;;;;;;4961352;28;20416;-57
2022/10/18 03:37:39;;;;;;;;;;;;;;;;;;5048939;28;19919;-56
2022/10/18 03:40:04;;;;;;;;;;;;;;;;;;4961695;28;19929;-56
2022/10/18 03:42:30;;;;;;;;;;;;;;;;;;4955883;28;19915;-55
2022/10/18 03:44:55;;;;;;;;;;;;;;;;;;4957782;28;19918;-55
2022/10/18 03:47:20;;;;;;;;;;;;;;;;;;4964635;28;19918;-56
2022/10/18 03:49:45;;;;;;;;;;;;;;;;;;4964062;28;19922;-55
2022/10/18 03:52:11;;;;;;;;;;;;;;;;;;4961346;28;19919;-54
2022/10/18 03:54:36;;;;;;;;;;;;;;;;;;4961184;28;19969;-55
2022/10/18 03:57:01;;;;;;;;;;;;;;;;;;4959309;28;20396;-56
2022/10/18 03:59:26;;;;;;;;;;;;;;;;;;4963827;28;20024;-56
2022/10/18 04:01:52;;;;;;;;;;;;;;;;;;4962175;28;20291;-54
2022/10/18 04:04:17;;;;;;;;;;;;;;;;;;4959320;28;20289;-56
2022/10/18 04:06:42;;;;;;;;;;;;;;;;;;4960370;28;19935;-55
2022/10/18 04:09:09;;;;;;;;;;;;;;;;;;4966448;28;19922;-56
2022/10/18 04:11:34;;;;;;;;;;;;;;;;;;4960019;28;19937;-53
2022/10/18 04:13:59;;;;;;;;;;;;;;;;;;4964644;28;19918;-54
2022/10/18 04:16:24;;;;;;;;;;;;;;;;;;4959400;28;19918;-57
2022/10/18 04:18:50;;;;;;;;;;;;;;;;;;4957623;28;20168;-56
2022/10/18 04:21:15;;;;;;;;;;;;;;;;;;4955970;28;19976;-57
2022/10/18 04:23:40;;;;;;;;;;;;;;;;;;4956776;28;19988;-56
2022/10/18 04:26:06;;;;;;;;;;;;;;;;;;4956618;28;19965;-55
2022/10/18 04:28:31;;;;;;;;;;;;;;;;;;4961682;28;20405;-57
2022/10/18 04:30:57;;;;;;;;;;;;;;;;;;4963940;28;20005;-56
2022/10/18 04:33:22;;;;;;;;;;;;;;;;;;4964459;28;19972;-58
2022/10/18 04:35:50;;;;;;;;;;;;;;;;;;4955415;28;19922;-57
2022/10/18 04:38:15;;;;;;;;;;;;;;;;;;4959035;28;19922;-56
2022/10/18 04:40:40;;;;;;;;;;;;;;;;;;4961857;28;19940;-56
2022/10/18 04:43:06;;;;;;;;;;;;;;;;;;4963431;28;19926;-57
2022/10/18 04:45:31;;;;;;;;;;;;;;;;;;4961016;28;19925;-57
2022/10/18 04:47:56;;;;;;;;;;;;;;;;;;4963018;28;20038;-55
2022/10/18 04:50:21;;;;;;;;;;;;;;;;;;4964548;28;20288;-56
2022/10/18 04:52:47;;;;;;;;;;;;;;;;;;4958387;28;19926;-57
2022/10/18 04:55:12;;;;;;;;;;;;;;;;;;4959711;28;20707;-56
2022/10/18 04:57:37;;;;;;;;;;;;;;;;;;4960813;28;19922;-56
2022/10/18 05:00:03;;;;;;;;;;;;;;;;;;4959373;28;19929;-55
2022/10/18 05:02:28;;;;;;;;;;;;;;;;;;4961534;28;19964;-60
2022/10/18 05:04:53;;;;;;;;;;;;;;;;;;4961681;28;19945;-59
2022/10/18 05:07:19;;;;;;;;;;;;;;;;;;4961991;28;20012;-59
2022/10/18 05:09:44;;;;;;;;;;;;;;;;;;4964536;28;19925;-59
2022/10/18 05:12:09;;;;;;;;;;;;;;;;;;4964427;28;19926;-59
2022/10/18 05:14:34;;;;;;;;;;;;;;;;;;4954397;28;19973;-59
2022/10/18 05:17:00;;;;;;;;;;;;;;;;;;4957453;28;20017;-58
2022/10/18 05:19:25;;;;;;;;;;;;;;;;;;4958218;28;19929;-59
2022/10/18 05:21:50;;;;;;;;;;;;;;;;;;4958784;28;20380;-59
2022/10/18 05:24:15;;;;;;;;;;;;;;;;;;4965132;28;19922;-59
2022/10/18 05:26:41;;;;;;;;;;;;;;;;;;4954975;28;20448;-58
2022/10/18 05:29:06;;;;;;;;;;;;;;;;;;4958003;28;19918;-59
2022/10/18 05:31:31;;;;;;;;;;;;;;;;;;4941952;28;20406;-57
2022/10/18 05:33:57;;;;;;;;;;;;;;;;;;4950939;28;19929;-57
2022/10/18 05:36:24;;;;;;;;;;;;;;;;;;4961544;28;19997;-58
2022/10/18 05:38:49;;;;;;;;;;;;;;;;;;4960876;28;19924;-57
2022/10/18 05:41:14;;;;;;;;;;;;;;;;;;4954889;28;20009;-57
2022/10/18 05:43:40;;;;;;;;;;;;;;;;;;4961681;28;19926;-57
2022/10/18 05:46:07;;;;;;;;;;;;;;;;;;4966922;28;19929;-57
2022/10/18 05:48:32;;;;;;;;;;;;;;;;;;4958785;28;19918;-56
2022/10/18 05:50:58;;;;;;;;;;;;;;;;;;4952397;28;19933;-57
2022/10/18 05:53:24;;;;;;;;;;;;;;;;;;4956836;28;20093;-57
2022/10/18 05:55:49;;;;;;;;;;;;;;;;;;4960432;28;20441;-56
2022/10/18 05:58:14;;;;;;;;;;;;;;;;;;4956769;28;19941;-57
2022/10/18 06:00:40;;;;;;;;;;;;;;;;;;4960581;28;20380;-57
2022/10/18 06:03:05;;;;;;;;;;;;;;;;;;4950092;28;19918;-57
2022/10/18 06:05:30;;;;;;;;;;;;;;;;;;4956209;28;19918;-57
2022/10/18 06:07:56;;;;;;;;;;;;;;;;;;4957138;28;20280;-57
2022/10/18 06:10:21;;;;;;;;;;;;;;;;;;4959356;28;19951;-57
2022/10/18 06:12:46;;;;;;;;;;;;;;;;;;4962456;28;19949;-58
2022/10/18 06:15:12;;;;;;;;;;;;;;;;;;4965438;28;19914;-57
2022/10/18 06:17:37;;;;;;;;;;;;;;;;;;4964759;28;19929;-57
2022/10/18 06:20:03;;;;;;;;;;;;;;;;;;4966763;28;19918;-57
2022/10/18 06:22:28;;;;;;;;;;;;;;;;;;4958350;28;20295;-57
2022/10/18 06:24:53;;;;;;;;;;;;;;;;;;4961453;28;19969;-57
2022/10/18 06:27:18;;;;;;;;;;;;;;;;;;4964103;28;19925;-57
2022/10/18 06:29:44;;;;;;;;;;;;;;;;;;4956931;28;19918;-57
2022/10/18 06:32:09;;;;;;;;;;;;;;;;;;4956666;28;19922;-57
2022/10/18 06:34:34;;;;;;;;;;;;;;;;;;4959019;28;19975;-57
2022/10/18 06:36:59;;;;;;;;;;;;;;;;;;4965052;28;20183;-57
2022/10/18 06:39:25;;;;;;;;;;;;;;;;;;4956941;28;19918;-57
2022/10/18 06:41:50;;;;;;;;;;;;;;;;;;4966913;28;19929;-57
2022/10/18 06:44:16;;;;;;;;;;;;;;;;;;4959156;28;19929;-58
2022/10/18 06:46:42;;;;;;;;;;;;;;;;;;4968887;28;19922;-57
2022/10/18 06:49:07;;;;;;;;;;;;;;;;;;4962897;28;20018;-57
2022/10/18 06:51:33;;;;;;;;;;;;;;;;;;4955105;28;20060;-57
2022/10/18 06:53:58;;;;;;;;;;;;;;;;;;4952382;28;19925;-57
2022/10/18 06:56:23;;;;;;;;;;;;;;;;;;4962170;28;19918;-57
2022/10/18 06:58:48;;;;;;;;;;;;;;;;;;4958492;28;20296;-57
2022/10/18 07:01:15;;;;;;;;;;;;;;;;;;4963952;28;19925;-57
2022/10/18 07:03:40;;;;;;;;;;;;;;;;;;4955607;28;19930;-57
2022/10/18 07:06:07;;;;;;;;;;;;;;;;;;4964461;28;20411;-57
2022/10/18 07:08:33;;;;;;;;;;;;;;;;;;4957453;28;19918;-57
2022/10/18 07:10:58;;;;;;;;;;;;;;;;;;4958732;28;19923;-57
2022/10/18 07:13:26;;;;;;;;;;;;;;;;;;4957398;28;19919;-57
2022/10/18 07:16:05;;;;;;;;;;;;;;;;;;4955548;28;19926;-57
2022/10/18 07:18:34;;;;;;;;;;;;;;;;;;4956827;28;20391;-57
2022/10/18 07:21:00;;;;;;;;;;;;;;;;;;4966717;28;19922;-57
2022/10/18 07:23:25;;;;;;;;;;;;;;;;;;4964033;28;19928;-57
2022/10/18 07:25:51;;;;;;;;;;;;;;;;;;4956248;28;19922;-57
2022/10/18 07:28:16;;;;;;;;;;;;;;;;;;4964039;28;19928;-57
2022/10/18 07:30:41;;;;;;;;;;;;;;;;;;4962216;28;19930;-57
2022/10/18 07:33:07;;;;;;;;;;;;;;;;;;4961074;28;19948;-57
2022/10/18 07:35:32;;;;;;;;;;;;;;;;;;4959743;28;20120;-57
2022/10/18 07:37:57;;;;;;;;;;;;;;;;;;4982141;28;19997;-58
2022/10/18 07:40:23;;;;;;;;;;;;;;;;;;4956274;28;19929;-58
2022/10/18 07:42:48;;;;;;;;;;;;;;;;;;4974226;28;20384;-57
2022/10/18 07:45:13;;;;;;;;;;;;;;;;;;4957716;28;19922;-58
2022/10/18 07:47:38;;;;;;;;;;;;;;;;;;4962471;28;20424;-57
2022/10/18 07:50:04;;;;;;;;;;;;;;;;;;4961154;28;19926;-57
2022/10/18 07:52:29;;;;;;;;;;;;;;;;;;4960284;28;19924;-57
2022/10/18 07:54:54;;;;;;;;;;;;;;;;;;4960261;28;19918;-57
2022/10/18 07:57:20;;;;;;;;;;;;;;;;;;4959466;28;20307;-57
2022/10/18 07:59:47;;;;;;;;;;;;;;;;;;4954372;28;19918;-57
2022/10/18 08:02:12;;;;;;;;;;;;;;;;;;4959860;28;20314;-57
2022/10/18 08:04:37;;;;;;;;;;;;;;;;;;4957488;28;20010;-57
2022/10/18 08:07:02;;;;;;;;;;;;;;;;;;4962734;28;19918;-57
2022/10/18 08:09:28;;;;;;;;;;;;;;;;;;4960415;28;19933;-57
2022/10/18 08:11:53;;;;;;;;;;;;;;;;;;4964645;28;19930;-57
2022/10/18 08:14:18;;;;;;;;;;;;;;;;;;4957286;28;19941;-57
2022/10/18 08:16:43;;;;;;;;;;;;;;;;;;4959511;28;19922;-57
2022/10/18 08:19:09;;;;;;;;;;;;;;;;;;4957119;28;20411;-57
2022/10/18 08:21:34;;;;;;;;;;;;;;;;;;4956092;28;20323;-57
2022/10/18 08:23:59;;;;;;;;;;;;;;;;;;4964809;28;19925;-57
2022/10/18 08:26:24;;;;;;;;;;;;;;;;;;4957571;28;20398;-57
2022/10/18 08:28:50;;;;;;;;;;;;;;;;;;4963410;28;19919;-57
2022/10/18 08:31:16;;;;;;;;;;;;;;;;;;4958441;28;19926;-57
2022/10/18 08:33:41;;;;;;;;;;;;;;;;;;4958962;28;19926;-57
2022/10/18 08:36:09;;;;;;;;;;;;;;;;;;4955202;28;20299;-58
2022/10/18 08:38:35;;;;;;;;;;;;;;;;;;4955784;28;20392;-57
2022/10/18 08:41:21;;;;;;;;;;;;;;;;;;4956728;28;19963;-57
2022/10/18 08:43:49;;;;;;;;;;;;;;;;;;4958027;28;19979;-57
2022/10/18 08:46:14;;;;;;;;;;;;;;;;;;4954532;28;19926;-57
2022/10/18 08:48:50;;;;;;;;;;;;;;;;;;4963289;28;20402;-57
2022/10/18 08:51:26;;;;;;;;;;;;;;;;;;4962556;28;19922;-57
2022/10/18 08:54:00;;;;;;;;;;;;;;;;;;4954719;28;20375;-57
2022/10/18 08:56:26;;;;;;;;;;;;;;;;;;4954445;28;19919;-57
2022/10/18 08:58:51;;;;;;;;;;;;;;;;;;4957494;28;19918;-57
2022/10/18 09:01:32;;;;;;;;;;;;;;;;;;4953543;28;19925;-57
2022/10/18 09:04:06;;;;;;;;;;;;;;;;;;4959278;28;20005;-57
2022/10/18 09:06:34;;;;;;;;;;;;;;;;;;4954664;28;19918;-57
2022/10/18 09:08:59;;;;;;;;;;;;;;;;;;4958670;28;20406;-57
2022/10/18 09:11:31;;;;;;;;;;;;;;;;;;4955724;28;20021;-57
2022/10/18 09:14:11;;;;;;;;;;;;;;;;;;4953462;28;19922;-58
2022/10/18 09:16:55;;;;;;;;;;;;;;;;;;4993614;28;19968;-58
2022/10/18 09:19:26;;;;;;;;;;;;;;;;;;4967407;28;19957;-57
2022/10/18 09:21:53;;;;;;;;;;;;;;;;;;4989185;28;19922;-58
2022/10/18 09:24:24;;;;;;;;;;;;;;;;;;4958206;28;20467;-58
2022/10/18 09:26:52;;;;;;;;;;;;;;;;;;4962575;28;20307;-58
2022/10/18 09:29:50;;;;;;;;;;;;;;;;;;4962614;28;19963;-58
2022/10/18 09:32:26;;;;;;;;;;;;;;;;;;5003538;28;19964;-58
2022/10/18 09:34:54;;;;;;;;;;;;;;;;;;4963322;28;19918;-58
2022/10/18 09:37:21;;;;;;;;;;;;;;;;;;4955378;28;19992;-58
2022/10/18 09:39:47;;;;;;;;;;;;;;;;;;4954346;28;20013;-58
2022/10/18 09:42:28;;;;;;;;;;;;;;;;;;4958994;28;20357;-57
2022/10/18 09:45:02;;;;;;;;;;;;;;;;;;4957142;28;21403;-58
2022/10/18 09:47:39;;;;;;;;;;;;;;;;;;4964740;28;20509;-58
2022/10/18 09:50:14;;;;;;;;;;;;;;;;;;4960826;28;19918;-58
2022/10/18 09:52:48;;;;;;;;;;;;;;;;;;4954158;28;19930;-58
2022/10/18 09:55:17;;;;;;;;;;;;;;;;;;4957560;28;19922;-57
2022/10/18 09:57:45;;;;;;;;;;;;;;;;;;4967662;28;19999;-58
2022/10/18 10:00:36;;;;;;;;;;;;;;;;;;4954675;28;19919;-58
2022/10/18 10:03:05;;;;;;;;;;;;;;;;;;4963558;28;19945;-57
2022/10/18 10:05:31;;;;;;;;;;;;;;;;;;4962636;28;19918;-57
2022/10/18 10:07:58;;;;;;;;;;;;;;;;;;4959483;28;20169;-57
2022/10/18 10:10:25;;;;;;;;;;;;;;;;;;4962208;28;19948;-57
2022/10/18 10:13:13;;;;;;;;;;;;;;;;;;4968259;28;20017;-57
2022/10/18 10:15:40;;;;;;;;;;;;;;;;;;4961895;28;19923;-56
2022/10/18 10:18:22;;;;;;;;;;;;;;;;;;4971030;28;20342;-57
2022/10/18 10:20:50;;;;;;;;;;;;;;;;;;4962596;28;19918;-57
2022/10/18 10:23:19;;;;;;;;;;;;;;;;;;4962304;28;20280;-57
2022/10/18 10:25:49;;;;;;;;;;;;;;;;;;4951388;28;19922;-57
2022/10/18 10:28:17;;;;;;;;;;;;;;;;;;4954963;28;19918;-57
2022/10/18 10:30:42;;;;;;;;;;;;;;;;;;4957898;28;20383;-58
2022/10/18 10:33:28;;;;;;;;;;;;;;;;;;4953690;28;19926;-57
2022/10/18 10:35:57;;;;;;;;;;;;;;;;;;4954810;28;19925;-58
2022/10/18 10:38:23;;;;;;;;;;;;;;;;;;4958261;28;19922;-58
2022/10/18 10:40:49;;;;;;;;;;;;;;;;;;4963000;28;19922;-58
2022/10/18 10:43:20;;;;;;;;;;;;;;;;;;4956387;28;19922;-58
2022/10/18 10:45:57;;;;;;;;;;;;;;;;;;4963101;28;19925;-58
2022/10/18 10:48:22;;;;;;;;;;;;;;;;;;4963072;28;19918;-58
2022/10/18 10:50:56;;;;;;;;;;;;;;;;;;4959106;28;19950;-58
2022/10/18 10:53:42;;;;;;;;;;;;;;;;;;4962091;28;19922;-58
2022/10/18 10:56:24;;;;;;;;;;;;;;;;;;4954267;28;19922;-60
2022/10/18 10:58:50;;;;;;;;;;;;;;;;;;4961933;28;19948;-58
2022/10/18 11:01:17;;;;;;;;;;;;;;;;;;4965437;28;19922;-57
2022/10/18 11:03:46;;;;;;;;;;;;;;;;;;4958885;28;19918;-58
2022/10/18 11:06:26;;;;;;;;;;;;;;;;;;4964355;28;20000;-57
2022/10/18 11:08:52;;;;;;;;;;;;;;;;;;4953856;28;19929;-57
2022/10/18 11:11:26;;;;;;;;;;;;;;;;;;4959252;28;20357;-58
2022/10/18 11:14:07;;;;;;;;;;;;;;;;;;4960609;28;19922;-59
2022/10/18 11:16:41;;;;;;;;;;;;;;;;;;4961974;28;19922;-59
2022/10/18 11:19:27;;;;;;;;;;;;;;;;;;4960739;28;19996;-55
2022/10/18 11:21:52;;;;;;;;;;;;;;;;;;4955655;28;19919;-59
2022/10/18 11:24:18;;;;;;;;;;;;;;;;;;4951449;28;20456;-59
2022/10/18 11:26:43;;;;;;;;;;;;;;;;;;4969574;28;20383;-58
2022/10/18 11:29:11;;;;;;;;;;;;;;;;;;4958913;28;19918;-58
2022/10/18 11:31:47;;;;;;;;;;;;;;;;;;4956220;28;19930;-58
2022/10/18 11:34:12;;;;;;;;;;;;;;;;;;4958809;28;19944;-58
2022/10/18 11:36:58;;;;;;;;;;;;;;;;;;4954009;28;20408;-58
2022/10/18 11:39:27;;;;;;;;;;;;;;;;;;4963056;28;19919;-58
2022/10/18 11:41:55;;;;;;;;;;;;;;;;;;4964952;28;19919;-59
2022/10/18 11:44:39;;;;;;;;;;;;;;;;;;4961744;28;19925;-58
2022/10/18 11:47:30;;;;;;;;;;;;;;;;;;4963325;28;20235;-58
2022/10/18 11:50:05;;;;;;;;;;;;;;;;;;4954609;28;19918;-59
2022/10/18 11:52:49;;;;;;;;;;;;;;;;;;4964397;28;19922;-59
2022/10/18 11:55:33;;;;;;;;;;;;;;;;;;4956338;28;20402;-58
2022/10/18 11:57:58;;;;;;;;;;;;;;;;;;4967260;28;20380;-59
2022/10/18 12:00:24;;;;;;;;;;;;;;;;;;4959468;28;19926;-59
2022/10/18 12:02:58;;;;;;;;;;;;;;;;;;4962405;28;20288;-59
2022/10/18 12:05:24;;;;;;;;;;;;;;;;;;4959447;28;19918;-59
2022/10/18 12:07:59;;;;;;;;;;;;;;;;;;4963119;28;19924;-57
2022/10/18 12:10:27;;;;;;;;;;;;;;;;;;4964674;28;19922;-58
2022/10/18 12:12:57;;;;;;;;;;;;;;;;;;4955155;28;20150;-58
2022/10/18 12:15:24;;;;;;;;;;;;;;;;;;4959468;28;19922;-59
2022/10/18 12:17:52;;;;;;;;;;;;;;;;;;4957427;28;20284;-59
2022/10/18 12:20:30;;;;;;;;;;;;;;;;;;4959592;28;20312;-58
2022/10/18 12:22:55;;;;;;;;;;;;;;;;;;4958922;28;19934;-59
2022/10/18 12:25:20;;;;;;;;;;;;;;;;;;4958263;28;19922;-58
2022/10/18 12:27:53;;;;;;;;;;;;;;;;;;4957650;28;19922;-58
2022/10/18 12:30:37;;;;;;;;;;;;;;;;;;4964751;28;19919;-58
2022/10/18 12:33:07;;;;;;;;;;;;;;;;;;4954095;28;20361;-58
2022/10/18 12:35:40;;;;;;;;;;;;;;;;;;4954009;28;20002;-58
2022/10/18 12:38:26;;;;;;;;;;;;;;;;;;4961060;28;20041;-59
2022/10/18 12:40:52;;;;;;;;;;;;;;;;;;4958178;28;20015;-58
2022/10/18 12:43:21;;;;;;;;;;;;;;;;;;4956333;28;19930;-59
2022/10/18 12:45:57;;;;;;;;;;;;;;;;;;4959196;28;19925;-58
2022/10/18 12:48:38;;;;;;;;;;;;;;;;;;4952039;28;19922;-59
2022/10/18 12:51:05;;;;;;;;;;;;;;;;;;4954830;28;20021;-59
2022/10/18 12:53:31;;;;;;;;;;;;;;;;;;4959172;28;19925;-59
2022/10/18 12:56:16;;;;;;;;;;;;;;;;;;4967850;28;20008;-59
2022/10/18 12:58:41;;;;;;;;;;;;;;;;;;4954285;28;19926;-59
2022/10/18 13:01:07;;;;;;;;;;;;;;;;;;4965858;28;20263;-59
2022/10/18 13:03:40;;;;;;;;;;;;;;;;;;4952782;28;19961;-59
2022/10/18 13:06:05;;;;;;;;;;;;;;;;;;4957077;28;20013;-59
2022/10/18 13:08:36;;;;;;;;;;;;;;;;;;4961988;28;20037;-58
2022/10/18 13:11:08;;;;;;;;;;;;;;;;;;4959078;28;19927;-59
2022/10/18 13:13:52;;;;;;;;;;;;;;;;;;4953158;28;19922;-56
2022/10/18 13:16:46;;;;;;;;;;;;;;;;;;4957132;28;20028;-57
2022/10/18 13:19:47;;;;;;;;;;;;;;;;;;4977473;28;19926;-57
2022/10/18 13:22:26;;;;;;;;;;;;;;;;;;5018814;28;19943;-57
2022/10/18 13:25:01;;;;;;;;;;;;;;;;;;4962194;28;19918;-56
2022/10/18 13:27:49;;;;;;;;;;;;;;;;;;4955052;28;19972;-57
2022/10/18 13:30:27;;;;;;;;;;;;;;;;;;4965445;28;20404;-57
2022/10/18 13:33:11;;;;;;;;;;;;;;;;;;4961239;28;19926;-57
2022/10/18 13:35:50;;;;;;;;;;;;;;;;;;4955603;28;19923;-57
2022/10/18 13:38:34;;;;;;;;;;;;;;;;;;4959010;28;19921;-57
2022/10/18 13:41:01;;;;;;;;;;;;;;;;;;4957676;28;19939;-57
2022/10/18 13:43:44;;;;;;;;;;;;;;;;;;4957262;28;19926;-57
2022/10/18 13:46:10;;;;;;;;;;;;;;;;;;4960092;28;19926;-57
2022/10/18 13:48:35;;;;;;;;;;;;;;;;;;4964900;28;19918;-57
2022/10/18 13:51:17;;;;;;;;;;;;;;;;;;4956552;28;19927;-57
2022/10/18 13:54:01;;;;;;;;;;;;;;;;;;4954676;28;20425;-57
2022/10/18 13:56:48;;;;;;;;;;;;;;;;;;4962964;28;19957;-57
2022/10/18 13:59:13;;;;;;;;;;;;;;;;;;4952687;28;19918;-58
2022/10/18 14:01:50;;;;;;;;;;;;;;;;;;4957048;28;20059;-58
2022/10/18 14:04:36;;;;;;;;;;;;;;;;;;4952450;28;19942;-58
2022/10/18 14:07:03;;;;;;;;;;;;;;;;;;4955675;28;19918;-58
2022/10/18 14:09:32;;;;;;;;;;;;;;;;;;4957868;28;19941;-58
2022/10/18 14:12:10;;;;;;;;;;;;;;;;;;4957071;28;19926;-58
2022/10/18 14:14:37;;;;;;;;;;;;;;;;;;4955996;28;20013;-57
2022/10/18 14:17:20;;;;;;;;;;;;;;;;;;4956205;28;19927;-57
2022/10/18 14:20:04;;;;;;;;;;;;;;;;;;4956985;28;19918;-57
2022/10/18 14:22:35;;;;;;;;;;;;;;;;;;4955219;28;19980;-57
2022/10/18 14:25:00;;;;;;;;;;;;;;;;;;4966261;28;19940;-57
2022/10/18 14:27:27;;;;;;;;;;;;;;;;;;4959354;28;20338;-57
2022/10/18 14:30:11;;;;;;;;;;;;;;;;;;4965445;28;19928;-57
2022/10/18 14:32:41;;;;;;;;;;;;;;;;;;4960052;28;19922;-57
2022/10/18 14:35:15;;;;;;;;;;;;;;;;;;4964424;28;19922;-57
2022/10/18 14:37:40;;;;;;;;;;;;;;;;;;4965414;28;20407;-57
2022/10/18 14:40:24;;;;;;;;;;;;;;;;;;4955611;28;19918;-57
2022/10/18 14:42:49;;;;;;;;;;;;;;;;;;4958596;28;19926;-57
2022/10/18 14:45:21;;;;;;;;;;;;;;;;;;4958058;28;19997;-57
2022/10/18 14:47:47;;;;;;;;;;;;;;;;;;4955722;28;20288;-57
2022/10/18 14:50:23;;;;;;;;;;;;;;;;;;4958815;28;19925;-57
2022/10/18 14:52:48;;;;;;;;;;;;;;;;;;4958203;28;19934;-57
2022/10/18 14:55:19;;;;;;;;;;;;;;;;;;4955436;28;20448;-57
2022/10/18 14:57:45;;;;;;;;;;;;;;;;;;4958930;28;19918;-57
2022/10/18 15:00:19;;;;;;;;;;;;;;;;;;4959646;28;19971;-57
2022/10/18 15:02:44;;;;;;;;;;;;;;;;;;4964958;28;19975;-57
2022/10/18 15:05:15;;;;;;;;;;;;;;;;;;4963824;28;19918;-57
2022/10/18 15:07:41;;;;;;;;;;;;;;;;;;4961768;28;19918;-57
2022/10/18 15:10:07;;;;;;;;;;;;;;;;;;4957570;28;19929;-57
2022/10/18 15:12:33;;;;;;;;;;;;;;;;;;4964442;28;19915;-57
2022/10/18 15:14:59;;;;;;;;;;;;;;;;;;4953175;28;20411;-57
2022/10/18 15:17:27;;;;;;;;;;;;;;;;;;4953114;28;20413;-57
2022/10/18 15:19:55;;;;;;;;;;;;;;;;;;4955580;28;20411;-57
2022/10/18 15:22:22;;;;;;;;;;;;;;;;;;4958820;28;19933;-57
2022/10/18 15:25:05;;;;;;;;;;;;;;;;;;4962695;28;19918;-57
2022/10/18 15:27:31;;;;;;;;;;;;;;;;;;4958842;28;19925;-57
2022/10/18 15:29:56;;;;;;;;;;;;;;;;;;4954780;28;19958;-57
2022/10/18 15:32:26;;;;;;;;;;;;;;;;;;4959779;28;20457;-57
2022/10/18 15:34:52;;;;;;;;;;;;;;;;;;4957021;28;19923;-57
2022/10/18 15:37:29;;;;;;;;;;;;;;;;;;4961398;28;19964;-57
2022/10/18 15:40:13;;;;;;;;;;;;;;;;;;4957577;28;19976;-57
2022/10/18 15:42:39;;;;;;;;;;;;;;;;;;4955594;28;19918;-57
2022/10/18 15:45:21;;;;;;;;;;;;;;;;;;4958566;28;20048;-57
2022/10/18 15:48:05;;;;;;;;;;;;;;;;;;4962060;28;19930;-58
2022/10/18 15:50:43;;;;;;;;;;;;;;;;;;4956481;28;19923;-56
2022/10/18 15:53:21;;;;;;;;;;;;;;;;;;4956353;28;19918;-54
2022/10/18 15:55:48;;;;;;;;;;;;;;;;;;4963802;28;20277;-55
2022/10/18 15:58:18;;;;;;;;;;;;;;;;;;4958184;28;20556;-56
2022/10/18 16:00:44;;;;;;;;;;;;;;;;;;4961698;28;20005;-55
2022/10/18 16:03:10;;;;;;;;;;;;;;;;;;4956096;28;19922;-57
2022/10/18 16:05:35;;;;;;;;;;;;;;;;;;4956003;28;19972;-59
2022/10/18 16:08:00;;;;;;;;;;;;;;;;;;4959309;28;20295;-56
2022/10/18 16:10:26;;;;;;;;;;;;;;;;;;4957818;28;20313;-57
2022/10/18 16:12:51;;;;;;;;;;;;;;;;;;4961366;28;19960;-57
2022/10/18 16:15:17;;;;;;;;;;;;;;;;;;4962795;28;19922;-57
2022/10/18 16:17:42;;;;;;;;;;;;;;;;;;4959293;28;20422;-58
2022/10/18 16:20:17;;;;;;;;;;;;;;;;;;4959992;28;19919;-57
2022/10/18 16:22:42;;;;;;;;;;;;;;;;;;4950858;28;19914;-57
2022/10/18 16:25:08;;;;;;;;;;;;;;;;;;4962132;28;20311;-57
2022/10/18 16:27:33;;;;;;;;;;;;;;;;;;4962914;28;19918;-58
2022/10/18 16:29:58;;;;;;;;;;;;;;;;;;4959883;28;19914;-57
2022/10/18 16:32:23;;;;;;;;;;;;;;;;;;4956288;28;19919;-57
2022/10/18 16:34:49;;;;;;;;;;;;;;;;;;4962799;28;19926;-57
2022/10/18 16:37:14;;;;;;;;;;;;;;;;;;4965778;28;20331;-57
2022/10/18 16:39:39;;;;;;;;;;;;;;;;;;4958145;28;19965;-57
2022/10/18 16:42:05;;;;;;;;;;;;;;;;;;4963977;28;19918;-57
2022/10/18 16:44:30;;;;;;;;;;;;;;;;;;4957571;28;20304;-58
2022/10/18 16:46:55;;;;;;;;;;;;;;;;;;4963370;28;19924;-58
2022/10/18 16:49:22;;;;;;;;;;;;;;;;;;4960233;28;20380;-57
2022/10/18 16:51:48;;;;;;;;;;;;;;;;;;4987226;28;19923;-57
2022/10/18 16:54:13;;;;;;;;;;;;;;;;;;4954548;28;19930;-57
2022/10/18 16:56:39;;;;;;;;;;;;;;;;;;4961562;28;19918;-57
2022/10/18 16:59:04;;;;;;;;;;;;;;;;;;4956492;28;19926;-57